Time;durP1;ratioP1;P1;durP2;ratioP2;P2;SDS_P1;SDS_P2;PMS_P1;PMS_P2;Temp;Humidity;BMP_temperature;BMP_pressure;BME280_temperature;BME280_humidity;BME280_pressure;Samples;Min_cycle;Max_cycle;Signal;HPM_P1;HPM_P2
2023/09/15 00:00:29;;;;;;;;;6.25;5.75;;;;;;;;5143712;27;8978;-76
2023/09/15 00:02:56;;;;;;;;;5.50;5.50;;;;;;;;5144105;27;9515;-76
2023/09/15 00:05:21;;;;;;;;;8.00;5.25;;;;;;;;5135001;27;8752;-76
2023/09/15 00:07:47;;;;;;;;;8.25;6.00;;;;;;;;5144328;27;9996;-75
2023/09/15 00:10:12;;;;;;;;;6.00;6.00;;;;;;;;5144220;27;8812;-76
2023/09/15 00:12:39;;;;;;;;;9.00;7.75;;;;;;;;5145447;27;8869;-76
2023/09/15 00:15:07;;;;;;;;;5.75;5.75;;;;;;;;5131268;27;8834;-76
2023/09/15 00:17:34;;;;;;;;;11.33;6.33;;;;;;;;5124484;27;10005;-76
2023/09/15 00:20:00;;;;;;;;;5.25;5.25;;;;;;;;5135939;27;9466;-76
2023/09/15 00:22:25;;;;;;;;;9.00;7.50;;;;;;;;5145331;27;9938;-76
2023/09/15 00:24:50;;;;;;;;;6.75;6.75;;;;;;;;5144327;27;9622;-76
2023/09/15 00:27:15;;;;;;;;;8.25;7.00;;;;;;;;5144694;27;9591;-76
2023/09/15 00:29:40;;;;;;;;;6.75;4.25;;;;;;;;5144642;27;8776;-76
2023/09/15 00:32:07;;;;;;;;;6.25;5.00;;;;;;;;5144140;27;8796;-76
2023/09/15 00:34:32;;;;;;;;;6.50;6.50;;;;;;;;5129286;27;8765;-76
2023/09/15 00:36:57;;;;;;;;;9.00;6.75;;;;;;;;5122803;28;9935;-76
2023/09/15 00:39:24;;;;;;;;;10.50;5.25;;;;;;;;5117483;28;8785;-76
2023/09/15 00:41:49;;;;;;;;;8.25;7.00;;;;;;;;5103811;28;8750;-76
2023/09/15 00:44:15;;;;;;;;;8.75;6.00;;;;;;;;5114694;28;9976;-76
2023/09/15 00:46:40;;;;;;;;;6.00;6.00;;;;;;;;5124255;27;8803;-76
2023/09/15 00:49:05;;;;;;;;;5.50;5.50;;;;;;;;5119633;27;8805;-76
2023/09/15 00:51:32;;;;;;;;;5.25;4.25;;;;;;;;5118322;27;8796;-76
2023/09/15 00:53:57;;;;;;;;;5.50;5.00;;;;;;;;5123206;27;8716;-76
2023/09/15 00:56:24;;;;;;;;;5.00;5.00;;;;;;;;5137567;27;10105;-76
2023/09/15 00:58:49;;;;;;;;;6.00;6.00;;;;;;;;5141747;27;8733;-76
2023/09/15 01:01:16;;;;;;;;;9.50;7.00;;;;;;;;5142987;27;9918;-76
2023/09/15 01:03:43;;;;;;;;;7.50;7.00;;;;;;;;5143074;27;9744;-76
2023/09/15 01:06:09;;;;;;;;;8.75;6.00;;;;;;;;5142622;27;10137;-76
2023/09/15 01:08:34;;;;;;;;;10.50;5.00;;;;;;;;5143634;27;10602;-76
2023/09/15 01:11:03;;;;;;;;;7.50;7.50;;;;;;;;5144478;27;8780;-76
2023/09/15 01:13:29;;;;;;;;;12.50;6.75;;;;;;;;5134954;27;8740;-76
2023/09/15 01:16:04;;;;;;;;;6.50;6.50;;;;;;;;5115678;27;10126;-76
2023/09/15 01:18:46;;;;;;;;;6.50;4.00;;;;;;;;5121886;28;8839;-76
2023/09/15 01:21:35;;;;;;;;;6.00;6.00;;;;;;;;5122272;28;9698;-76
2023/09/15 01:24:09;;;;;;;;;6.50;5.00;;;;;;;;5100280;28;9951;-76
2023/09/15 01:26:53;;;;;;;;;8.25;7.00;;;;;;;;5098960;28;10327;-76
2023/09/15 01:29:18;;;;;;;;;7.00;6.00;;;;;;;;5100739;28;10042;-76
2023/09/15 01:31:45;;;;;;;;;7.75;7.50;;;;;;;;5100216;28;10036;-76
2023/09/15 01:34:13;;;;;;;;;3.25;3.25;;;;;;;;5100125;28;8901;-76
2023/09/15 01:36:39;;;;;;;;;9.75;6.25;;;;;;;;5112879;28;10193;-76
2023/09/15 01:39:04;;;;;;;;;7.25;6.00;;;;;;;;5121185;28;10144;-76
2023/09/15 01:41:29;;;;;;;;;5.50;4.25;;;;;;;;5100314;28;8803;-76
2023/09/15 01:43:55;;;;;;;;;8.00;5.00;;;;;;;;5116926;28;8790;-76
2023/09/15 01:46:23;;;;;;;;;7.75;4.00;;;;;;;;5083334;28;10267;-76
2023/09/15 01:48:58;;;;;;;;;7.00;5.25;;;;;;;;5082450;28;8851;-76
2023/09/15 01:51:25;;;;;;;;;6.75;4.75;;;;;;;;5100154;28;9831;-76
2023/09/15 01:53:51;;;;;;;;;8.00;6.00;;;;;;;;5082899;28;9955;-76
2023/09/15 01:56:17;;;;;;;;;8.00;5.00;;;;;;;;5098597;28;10381;-76
2023/09/15 01:58:42;;;;;;;;;6.25;6.25;;;;;;;;5100230;28;8775;-76
2023/09/15 02:01:07;;;;;;;;;4.75;4.75;;;;;;;;5101527;28;11577;-76
2023/09/15 02:03:32;;;;;;;;;4.00;4.00;;;;;;;;5102452;28;8758;-76
2023/09/15 02:06:03;;;;;;;;;7.25;7.00;;;;;;;;5101954;28;8840;-76
2023/09/15 02:08:28;;;;;;;;;9.25;7.50;;;;;;;;5101434;28;8850;-76
2023/09/15 02:10:53;;;;;;;;;8.25;6.00;;;;;;;;5102040;28;10028;-76
2023/09/15 02:13:18;;;;;;;;;5.75;4.25;;;;;;;;5102479;28;8881;-76
2023/09/15 02:15:44;;;;;;;;;8.25;7.00;;;;;;;;5120522;28;8819;-76
2023/09/15 02:18:10;;;;;;;;;6.00;6.00;;;;;;;;5122721;28;8857;-76
2023/09/15 02:20:35;;;;;;;;;5.00;4.00;;;;;;;;5122912;28;8771;-76
2023/09/15 02:23:03;;;;;;;;;6.00;6.00;;;;;;;;5122806;28;8852;-76
2023/09/15 02:25:33;;;;;;;;;3.50;3.50;;;;;;;;5120044;28;10142;-76
2023/09/15 02:27:59;;;;;;;;;7.50;5.75;;;;;;;;5122569;28;9984;-76
2023/09/15 02:30:24;;;;;;;;;5.00;5.00;;;;;;;;5121359;28;10253;-75
2023/09/15 02:32:49;;;;;;;;;9.25;4.75;;;;;;;;5122711;28;8795;-76
2023/09/15 02:35:14;;;;;;;;;7.25;7.25;;;;;;;;5122447;28;8775;-76
2023/09/15 02:37:40;;;;;;;;;6.00;6.00;;;;;;;;5122701;28;8783;-76
2023/09/15 02:40:06;;;;;;;;;10.00;5.75;;;;;;;;5122071;28;8771;-76
2023/09/15 02:42:33;;;;;;;;;5.00;5.00;;;;;;;;5122899;28;8859;-76
2023/09/15 02:44:58;;;;;;;;;6.75;6.00;;;;;;;;5122428;28;10304;-76
2023/09/15 02:47:23;;;;;;;;;7.00;5.50;;;;;;;;5121948;27;10249;-76
2023/09/15 02:49:49;;;;;;;;;11.25;5.50;;;;;;;;5121614;27;8801;-76
2023/09/15 02:52:14;;;;;;;;;8.00;7.00;;;;;;;;5122377;27;8930;-76
2023/09/15 02:54:39;;;;;;;;;7.50;5.00;;;;;;;;5121335;27;8862;-76
2023/09/15 02:57:04;;;;;;;;;8.50;6.00;;;;;;;;5127130;27;8812;-76
2023/09/15 02:59:30;;;;;;;;;6.00;6.00;;;;;;;;5142740;27;8846;-76
2023/09/15 03:01:55;;;;;;;;;7.75;7.00;;;;;;;;5142829;27;8792;-76
2023/09/15 03:04:20;;;;;;;;;5.25;5.25;;;;;;;;5145768;27;8764;-76
2023/09/15 03:06:47;;;;;;;;;5.00;5.00;;;;;;;;5146600;27;8800;-76
2023/09/15 03:09:12;;;;;;;;;6.75;6.25;;;;;;;;5145970;27;8784;-76
2023/09/15 03:11:37;;;;;;;;;6.00;6.00;;;;;;;;5146282;27;10163;-76
2023/09/15 03:14:03;;;;;;;;;7.25;6.50;;;;;;;;5137425;27;8786;-76
2023/09/15 03:16:29;;;;;;;;;9.75;7.75;;;;;;;;5127145;27;8828;-75
2023/09/15 03:18:54;;;;;;;;;6.75;6.75;;;;;;;;5146088;27;8717;-76
2023/09/15 03:21:20;;;;;;;;;5.75;4.00;;;;;;;;5146157;27;10007;-76
2023/09/15 03:23:46;;;;;;;;;7.75;7.00;;;;;;;;5144820;27;8796;-76
2023/09/15 03:26:13;;;;;;;;;9.00;7.75;;;;;;;;5133465;27;8813;-76
2023/09/15 03:28:39;;;;;;;;;9.50;9.25;;;;;;;;5145694;27;10259;-76
2023/09/15 03:31:04;;;;;;;;;8.25;8.25;;;;;;;;5145987;27;10361;-76
2023/09/15 03:33:30;;;;;;;;;10.75;9.00;;;;;;;;5138305;27;10625;-76
2023/09/15 03:35:56;;;;;;;;;9.50;8.00;;;;;;;;5145046;27;8713;-76
2023/09/15 03:38:21;;;;;;;;;9.00;8.50;;;;;;;;5131926;27;10311;-76
2023/09/15 03:40:46;;;;;;;;;11.00;9.00;;;;;;;;5131465;27;8780;-76
2023/09/15 03:43:11;;;;;;;;;10.50;9.75;;;;;;;;5145665;27;8784;-76
2023/09/15 03:45:37;;;;;;;;;10.00;8.50;;;;;;;;5145800;27;8781;-76
2023/09/15 03:48:04;;;;;;;;;7.00;6.00;;;;;;;;5145162;27;8836;-76
2023/09/15 03:50:30;;;;;;;;;9.00;8.00;;;;;;;;5128363;27;8795;-76
2023/09/15 03:52:56;;;;;;;;;8.50;6.25;;;;;;;;5124330;27;10409;-76
2023/09/15 03:55:21;;;;;;;;;6.75;5.25;;;;;;;;5124272;27;10232;-76
2023/09/15 03:57:47;;;;;;;;;7.00;6.25;;;;;;;;5138883;27;8793;-76
2023/09/15 04:00:17;;;;;;;;;6.50;6.50;;;;;;;;5142553;27;8808;-75
2023/09/15 04:02:43;;;;;;;;;5.75;5.75;;;;;;;;5124841;27;8773;-76
2023/09/15 04:05:09;;;;;;;;;11.25;6.00;;;;;;;;5136332;27;10355;-76
2023/09/15 04:07:36;;;;;;;;;4.50;4.50;;;;;;;;5143556;27;8839;-76
2023/09/15 04:10:02;;;;;;;;;8.25;7.50;;;;;;;;5145184;27;10608;-76
2023/09/15 04:12:27;;;;;;;;;8.00;7.00;;;;;;;;5143720;27;10422;-76
2023/09/15 04:14:53;;;;;;;;;5.25;5.25;;;;;;;;5134579;27;10226;-76
2023/09/15 04:17:18;;;;;;;;;7.50;6.50;;;;;;;;5118046;27;8797;-76
2023/09/15 04:19:43;;;;;;;;;4.25;3.00;;;;;;;;5110236;27;8918;-76
2023/09/15 04:22:08;;;;;;;;;0.00;0.00;;;;;;;;5122641;28;9950;-75
2023/09/15 04:24:34;;;;;;;;;9.25;7.50;;;;;;;;5136347;27;8820;-75
2023/09/15 04:26:59;;;;;;;;;8.25;5.75;;;;;;;;5140976;27;8815;-76
2023/09/15 04:29:24;;;;;;;;;5.00;4.75;;;;;;;;5124660;28;8851;-76
2023/09/15 04:31:50;;;;;;;;;4.50;4.50;;;;;;;;5124353;27;8802;-76
2023/09/15 04:34:15;;;;;;;;;8.00;7.00;;;;;;;;5124092;27;9578;-76
2023/09/15 04:36:40;;;;;;;;;4.75;4.75;;;;;;;;5124211;27;8893;-76
2023/09/15 04:39:05;;;;;;;;;6.50;6.50;;;;;;;;5123555;27;8791;-75
2023/09/15 04:41:31;;;;;;;;;9.25;9.00;;;;;;;;5125778;27;10039;-75
2023/09/15 04:43:57;;;;;;;;;8.50;8.50;;;;;;;;5127362;27;8816;-75
2023/09/15 04:46:24;;;;;;;;;10.00;7.00;;;;;;;;5142598;27;8761;-75
2023/09/15 04:48:49;;;;;;;;;8.25;5.75;;;;;;;;5122846;28;11412;-75
2023/09/15 04:51:15;;;;;;;;;8.75;8.00;;;;;;;;5130256;27;10379;-74
2023/09/15 04:53:40;;;;;;;;;5.00;4.00;;;;;;;;5124553;27;8883;-73
2023/09/15 04:56:05;;;;;;;;;8.00;6.25;;;;;;;;5134827;27;8854;-76
2023/09/15 04:58:31;;;;;;;;;6.00;5.25;;;;;;;;5124385;27;8836;-74
2023/09/15 05:01:00;;;;;;;;;9.75;7.75;;;;;;;;5122356;28;10005;-75
2023/09/15 05:03:25;;;;;;;;;6.00;6.00;;;;;;;;5121283;28;8789;-78
2023/09/15 05:05:53;;;;;;;;;6.75;6.75;;;;;;;;5122762;28;10104;-75
2023/09/15 05:08:19;;;;;;;;;7.75;6.00;;;;;;;;5124374;27;8806;-81
2023/09/15 05:10:47;;;;;;;;;12.50;8.00;;;;;;;;5123539;27;10368;-79
2023/09/15 05:13:13;;;;;;;;;5.00;5.00;;;;;;;;5123687;27;8848;-82
2023/09/15 05:15:38;;;;;;;;;7.00;4.00;;;;;;;;5116266;27;10335;-81
2023/09/15 05:18:03;;;;;;;;;7.75;7.75;;;;;;;;5142826;27;8822;-77
2023/09/15 05:20:29;;;;;;;;;9.00;5.75;;;;;;;;5122823;27;10039;-77
2023/09/15 05:22:54;;;;;;;;;7.25;7.25;;;;;;;;5144168;27;9618;-77
2023/09/15 05:25:20;;;;;;;;;11.50;6.25;;;;;;;;5123328;27;8895;-79
2023/09/15 05:27:49;;;;;;;;;10.25;7.75;;;;;;;;5120242;27;8803;-83
2023/09/15 05:30:19;;;;;;;;;6.25;5.50;;;;;;;;5119313;28;10450;-77
2023/09/15 05:32:44;;;;;;;;;8.25;7.00;;;;;;;;5120186;27;10138;-77
2023/09/15 05:35:10;;;;;;;;;9.00;8.00;;;;;;;;5122129;27;10227;-80
2023/09/15 05:37:36;;;;;;;;;17.25;9.75;;;;;;;;5119443;27;8819;-79
2023/09/15 05:40:01;;;;;;;;;7.50;6.75;;;;;;;;5122737;28;10438;-79
2023/09/15 05:42:26;;;;;;;;;7.00;7.00;;;;;;;;5109811;27;8797;-79
2023/09/15 05:44:54;;;;;;;;;9.75;9.75;;;;;;;;5125317;27;8838;-78
2023/09/15 05:47:19;;;;;;;;;9.00;9.00;;;;;;;;5119458;27;8795;-79
2023/09/15 05:49:45;;;;;;;;;9.25;7.50;;;;;;;;5127385;27;10426;-79
2023/09/15 05:52:10;;;;;;;;;7.00;7.00;;;;;;;;5133511;27;8796;-79
2023/09/15 05:54:35;;;;;;;;;11.00;8.75;;;;;;;;5129390;27;8805;-78
2023/09/15 05:57:00;;;;;;;;;8.50;7.25;;;;;;;;5135093;27;8993;-78
2023/09/15 05:59:26;;;;;;;;;10.50;6.75;;;;;;;;5122671;27;8814;-79
2023/09/15 06:01:51;;;;;;;;;9.25;8.25;;;;;;;;5120029;27;8815;-79
2023/09/15 06:04:16;;;;;;;;;11.50;8.00;;;;;;;;5128313;27;9527;-78
2023/09/15 06:06:42;;;;;;;;;8.00;8.00;;;;;;;;5124923;27;8820;-79
2023/09/15 06:09:07;;;;;;;;;10.50;8.75;;;;;;;;5121537;28;8909;-79
2023/09/15 06:11:32;;;;;;;;;10.75;10.00;;;;;;;;5123178;27;8795;-79
2023/09/15 06:13:58;;;;;;;;;11.00;8.00;;;;;;;;5123018;27;8800;-78
2023/09/15 06:16:23;;;;;;;;;11.25;10.75;;;;;;;;5122016;27;8889;-79
2023/09/15 06:18:48;;;;;;;;;11.75;9.00;;;;;;;;5122436;27;8822;-78
2023/09/15 06:21:14;;;;;;;;;10.25;9.00;;;;;;;;5121397;27;8810;-79
2023/09/15 06:23:39;;;;;;;;;11.00;10.75;;;;;;;;5125009;27;8800;-78
2023/09/15 06:26:04;;;;;;;;;15.75;10.25;;;;;;;;5115855;27;9458;-78
2023/09/15 06:28:30;;;;;;;;;10.00;9.00;;;;;;;;5115289;27;8803;-77
2023/09/15 06:30:55;;;;;;;;;13.50;7.75;;;;;;;;5126160;27;8784;-78
2023/09/15 06:33:21;;;;;;;;;9.75;8.75;;;;;;;;5121713;27;8911;-76
2023/09/15 06:35:46;;;;;;;;;11.25;9.50;;;;;;;;5127573;27;8907;-76
2023/09/15 06:38:12;;;;;;;;;10.25;8.75;;;;;;;;5132133;27;11051;-78
2023/09/15 06:40:37;;;;;;;;;10.25;9.75;;;;;;;;5145289;27;8793;-76
2023/09/15 06:43:04;;;;;;;;;10.00;9.75;;;;;;;;5134860;27;8870;-78
2023/09/15 06:45:31;;;;;;;;;13.00;8.75;;;;;;;;5145647;27;8736;-77
2023/09/15 06:47:56;;;;;;;;;10.75;10.75;;;;;;;;5137186;27;10429;-78
2023/09/15 06:50:21;;;;;;;;;10.50;9.25;;;;;;;;5135328;27;10301;-77
2023/09/15 06:52:47;;;;;;;;;9.00;7.75;;;;;;;;5146065;27;8760;-78
2023/09/15 06:55:12;;;;;;;;;14.75;10.25;;;;;;;;5142681;27;8776;-75
2023/09/15 06:57:37;;;;;;;;;10.75;10.00;;;;;;;;5127368;27;8816;-75
2023/09/15 07:00:03;;;;;;;;;12.00;10.00;;;;;;;;5125166;28;8852;-75
2023/09/15 07:02:28;;;;;;;;;16.25;10.50;;;;;;;;5124627;27;8740;-75
2023/09/15 07:04:54;;;;;;;;;12.00;10.00;;;;;;;;5123925;27;10180;-76
2023/09/15 07:07:19;;;;;;;;;10.75;10.25;;;;;;;;5124851;27;9034;-75
2023/09/15 07:09:44;;;;;;;;;11.50;11.50;;;;;;;;5125477;27;8977;-75
2023/09/15 07:12:09;;;;;;;;;13.25;11.25;;;;;;;;5124388;28;8783;-76
2023/09/15 07:14:35;;;;;;;;;10.25;9.75;;;;;;;;5124453;27;8779;-76
2023/09/15 07:17:00;;;;;;;;;7.50;7.50;;;;;;;;5132492;27;8781;-76
2023/09/15 07:19:26;;;;;;;;;8.00;8.00;;;;;;;;5138213;27;8896;-77
2023/09/15 07:21:51;;;;;;;;;10.75;10.75;;;;;;;;5125507;27;8822;-77
2023/09/15 07:24:16;;;;;;;;;14.00;9.50;;;;;;;;5136872;27;8875;-77
2023/09/15 07:26:42;;;;;;;;;9.67;7.00;;;;;;;;5131984;27;8813;-77
2023/09/15 07:29:07;;;;;;;;;8.50;7.50;;;;;;;;5127200;27;8795;-76
2023/09/15 07:31:36;;;;;;;;;6.00;6.00;;;;;;;;5112562;28;8791;-76
2023/09/15 07:34:01;;;;;;;;;7.25;6.50;;;;;;;;5117450;27;8921;-76
2023/09/15 07:36:27;;;;;;;;;10.00;8.25;;;;;;;;5127117;27;9827;-76
2023/09/15 07:38:53;;;;;;;;;10.25;6.25;;;;;;;;5122351;27;8877;-77
2023/09/15 07:41:24;;;;;;;;;6.67;5.67;;;;;;;;5145646;27;8836;-76
2023/09/15 07:43:51;;;;;;;;;7.50;6.00;;;;;;;;5137112;27;8798;-77
2023/09/15 07:46:17;;;;;;;;;6.00;5.00;;;;;;;;5123332;27;9924;-78
2023/09/15 07:48:43;;;;;;;;;11.50;7.00;;;;;;;;5124262;27;9334;-77
2023/09/15 07:51:08;;;;;;;;;6.50;4.50;;;;;;;;5124324;27;9770;-78
2023/09/15 07:53:33;;;;;;;;;7.00;7.00;;;;;;;;5124186;27;9632;-76
2023/09/15 07:55:59;;;;;;;;;8.00;7.25;;;;;;;;5122182;28;10061;-77
2023/09/15 07:58:24;;;;;;;;;6.25;5.00;;;;;;;;5134731;27;8815;-77
2023/09/15 08:00:49;;;;;;;;;7.25;5.75;;;;;;;;5128307;27;8792;-77
2023/09/15 08:03:14;;;;;;;;;9.25;8.00;;;;;;;;5123967;27;8789;-77
2023/09/15 08:05:40;;;;;;;;;5.50;5.50;;;;;;;;5123527;27;8795;-77
2023/09/15 08:08:05;;;;;;;;;5.67;5.67;;;;;;;;5136907;27;8831;-77
2023/09/15 08:10:31;;;;;;;;;10.00;7.00;;;;;;;;5128056;27;8816;-77
2023/09/15 08:12:56;;;;;;;;;13.00;8.75;;;;;;;;5117083;27;8864;-77
2023/09/15 08:15:22;;;;;;;;;8.75;8.75;;;;;;;;5130531;27;10222;-77
2023/09/15 08:17:47;;;;;;;;;8.25;8.25;;;;;;;;5144119;27;8981;-77
2023/09/15 08:20:13;;;;;;;;;8.50;7.00;;;;;;;;5128581;27;8848;-77
2023/09/15 08:22:39;;;;;;;;;9.00;7.50;;;;;;;;5140622;27;8733;-77
2023/09/15 08:25:05;;;;;;;;;10.25;8.00;;;;;;;;5141606;27;9938;-77
2023/09/15 08:27:30;;;;;;;;;7.00;7.00;;;;;;;;5122751;27;8816;-77
2023/09/15 08:29:55;;;;;;;;;8.25;7.25;;;;;;;;5122764;28;8796;-77
2023/09/15 08:32:20;;;;;;;;;10.00;9.25;;;;;;;;5131925;27;8808;-77
2023/09/15 08:34:45;;;;;;;;;10.00;6.25;;;;;;;;5144597;27;8784;-77
2023/09/15 08:37:12;;;;;;;;;11.50;9.00;;;;;;;;5145002;27;8804;-77
2023/09/15 08:39:38;;;;;;;;;8.25;7.00;;;;;;;;5130752;27;8729;-77
2023/09/15 08:42:04;;;;;;;;;9.75;8.50;;;;;;;;5143344;27;9634;-77
2023/09/15 08:44:30;;;;;;;;;9.50;8.50;;;;;;;;5124671;27;10147;-77
2023/09/15 08:46:56;;;;;;;;;9.50;7.75;;;;;;;;5122463;27;9846;-77
2023/09/15 08:49:22;;;;;;;;;18.50;9.50;;;;;;;;5125899;27;9724;-77
2023/09/15 08:51:48;;;;;;;;;6.75;6.75;;;;;;;;5137453;27;8788;-76
2023/09/15 08:54:14;;;;;;;;;9.00;8.00;;;;;;;;5122070;28;9979;-77
2023/09/15 08:56:39;;;;;;;;;13.00;8.00;;;;;;;;5123261;27;9724;-77
2023/09/15 08:59:06;;;;;;;;;14.00;10.00;;;;;;;;5121867;28;8799;-77
2023/09/15 09:01:31;;;;;;;;;9.00;9.00;;;;;;;;5138652;27;8787;-77
2023/09/15 09:03:57;;;;;;;;;9.25;8.00;;;;;;;;5141117;27;9993;-76
2023/09/15 09:06:23;;;;;;;;;7.75;6.25;;;;;;;;5142361;27;8831;-77
2023/09/15 09:08:48;;;;;;;;;8.50;7.00;;;;;;;;5144755;27;8757;-77
2023/09/15 09:11:14;;;;;;;;;10.00;7.50;;;;;;;;5123083;27;9655;-76
2023/09/15 09:13:40;;;;;;;;;10.25;7.25;;;;;;;;5123268;27;8813;-77
2023/09/15 09:16:05;;;;;;;;;7.00;7.00;;;;;;;;5122743;27;9821;-77
2023/09/15 09:18:32;;;;;;;;;8.00;6.50;;;;;;;;5122150;27;8913;-77
2023/09/15 09:20:57;;;;;;;;;8.00;7.00;;;;;;;;5123446;27;8747;-77
2023/09/15 09:23:22;;;;;;;;;10.00;8.25;;;;;;;;5136078;27;9969;-77
2023/09/15 09:25:47;;;;;;;;;10.00;10.00;;;;;;;;5126224;27;9604;-77
2023/09/15 09:28:14;;;;;;;;;12.25;12.25;;;;;;;;5132137;27;8794;-77
2023/09/15 09:30:40;;;;;;;;;10.00;7.75;;;;;;;;5140203;27;9650;-77
2023/09/15 09:33:08;;;;;;;;;9.00;7.75;;;;;;;;5127309;27;8895;-77
2023/09/15 09:35:34;;;;;;;;;7.25;7.00;;;;;;;;5121811;27;8821;-75
2023/09/15 09:38:00;;;;;;;;;11.75;8.50;;;;;;;;5136006;27;10863;-76
2023/09/15 09:40:26;;;;;;;;;7.00;5.33;;;;;;;;5131765;27;8803;-76
2023/09/15 09:42:52;;;;;;;;;11.00;8.00;;;;;;;;5122889;27;10440;-76
2023/09/15 09:45:17;;;;;;;;;6.75;6.00;;;;;;;;5127970;27;8809;-76
2023/09/15 09:47:43;;;;;;;;;11.25;11.25;;;;;;;;5134403;27;9755;-77
2023/09/15 09:50:10;;;;;;;;;15.50;11.25;;;;;;;;5124255;27;8787;-76
2023/09/15 09:52:35;;;;;;;;;8.50;7.50;;;;;;;;5133423;27;9681;-77
2023/09/15 09:55:03;;;;;;;;;13.33;9.00;;;;;;;;5134067;27;9499;-76
2023/09/15 09:57:28;;;;;;;;;8.50;7.25;;;;;;;;5123185;27;8768;-77
2023/09/15 09:59:54;;;;;;;;;9.00;8.50;;;;;;;;5127155;27;9558;-77
2023/09/15 10:02:19;;;;;;;;;8.50;8.50;;;;;;;;5128887;27;9940;-77
2023/09/15 10:04:45;;;;;;;;;8.50;8.50;;;;;;;;5135363;27;8905;-77
2023/09/15 10:07:10;;;;;;;;;12.25;9.25;;;;;;;;5141472;27;8824;-77
2023/09/15 10:09:36;;;;;;;;;9.50;7.50;;;;;;;;5133767;27;8891;-78
2023/09/15 10:12:02;;;;;;;;;7.25;7.25;;;;;;;;5131849;27;10075;-76
2023/09/15 10:14:29;;;;;;;;;8.50;6.50;;;;;;;;5137128;27;9605;-74
2023/09/15 10:16:56;;;;;;;;;10.25;8.75;;;;;;;;5134184;27;8770;-81
2023/09/15 10:19:22;;;;;;;;;9.00;7.00;;;;;;;;5134050;27;9636;-78
2023/09/15 10:21:47;;;;;;;;;8.50;7.00;;;;;;;;5134831;27;10062;-80
2023/09/15 10:24:15;;;;;;;;;8.50;7.50;;;;;;;;5132692;27;8826;-80
2023/09/15 10:26:44;;;;;;;;;11.00;9.00;;;;;;;;5132238;27;11435;-84
2023/09/15 10:29:12;;;;;;;;;9.00;7.50;;;;;;;;5135120;27;9721;-79
2023/09/15 10:31:41;;;;;;;;;8.00;8.00;;;;;;;;5133600;27;9851;-78
2023/09/15 10:34:07;;;;;;;;;6.00;6.00;;;;;;;;5126704;27;9447;-78
2023/09/15 10:36:33;;;;;;;;;9.00;6.00;;;;;;;;5139393;27;9362;-81
2023/09/15 10:38:58;;;;;;;;;9.00;8.00;;;;;;;;5136853;27;8824;-77
2023/09/15 10:41:30;;;;;;;;;8.00;8.00;;;;;;;;5133573;27;8821;-77
2023/09/15 10:43:55;;;;;;;;;11.00;7.00;;;;;;;;5129783;27;8781;-78
2023/09/15 10:46:21;;;;;;;;;7.67;6.00;;;;;;;;5124727;28;9332;-79
2023/09/15 10:48:47;;;;;;;;;8.33;7.33;;;;;;;;5137428;27;8796;-79
2023/09/15 10:51:16;;;;;;;;;10.00;8.00;;;;;;;;5134482;27;8800;-78
2023/09/15 10:53:45;;;;;;;;;9.67;9.67;;;;;;;;5124412;27;8795;-75
2023/09/15 10:56:12;;;;;;;;;8.33;7.00;;;;;;;;5132237;27;9406;-77
2023/09/15 10:58:38;;;;;;;;;8.33;7.33;;;;;;;;5132610;27;9303;-78
2023/09/15 11:01:03;;;;;;;;;8.00;6.67;;;;;;;;5141137;27;9622;-81
2023/09/15 11:03:29;;;;;;;;;7.67;7.33;;;;;;;;5135360;27;8823;-75
2023/09/15 11:05:55;;;;;;;;;10.67;9.00;;;;;;;;5141886;27;8918;-75
2023/09/15 11:08:21;;;;;;;;;5.67;5.67;;;;;;;;5143680;27;8829;-75
2023/09/15 11:10:46;;;;;;;;;7.67;6.67;;;;;;;;5138886;27;9947;-75
2023/09/15 11:13:12;;;;;;;;;13.67;6.33;;;;;;;;5135000;27;9091;-77
2023/09/15 11:15:37;;;;;;;;;7.33;7.33;;;;;;;;5117225;27;8815;-76
2023/09/15 11:18:04;;;;;;;;;5.33;5.33;;;;;;;;5115951;27;8813;-76
2023/09/15 11:20:29;;;;;;;;;9.33;6.33;;;;;;;;5111236;28;10172;-76
2023/09/15 11:22:55;;;;;;;;;7.67;7.00;;;;;;;;5114159;27;9314;-75
2023/09/15 11:25:20;;;;;;;;;6.33;6.00;;;;;;;;5109925;28;8810;-76
2023/09/15 11:27:47;;;;;;;;;4.67;4.33;;;;;;;;5119274;27;9114;-77
2023/09/15 11:30:12;;;;;;;;;7.67;7.33;;;;;;;;5114117;27;8771;-80
2023/09/15 11:32:37;;;;;;;;;6.00;4.67;;;;;;;;5124247;27;9304;-81
2023/09/15 11:35:09;;;;;;;;;6.00;5.33;;;;;;;;5118568;27;8786;-82
2023/09/15 11:37:34;;;;;;;;;5.67;5.67;;;;;;;;5130140;27;8806;-83
2023/09/15 11:40:00;;;;;;;;;10.00;7.00;;;;;;;;5117868;27;9253;-82
2023/09/15 11:42:25;;;;;;;;;3.00;3.00;;;;;;;;5127889;27;8826;-82
2023/09/15 11:44:50;;;;;;;;;7.00;5.33;;;;;;;;5145986;27;8800;-82
2023/09/15 11:47:16;;;;;;;;;5.00;5.00;;;;;;;;5133918;27;9609;-82
2023/09/15 11:49:42;;;;;;;;;6.33;6.33;;;;;;;;5121806;27;8895;-82
2023/09/15 11:52:07;;;;;;;;;5.33;4.00;;;;;;;;5120452;28;8799;-82
2023/09/15 11:54:33;;;;;;;;;6.67;4.67;;;;;;;;5123677;27;8775;-79
2023/09/15 11:56:59;;;;;;;;;4.33;4.33;;;;;;;;5125191;27;8823;-82
2023/09/15 11:59:24;;;;;;;;;4.00;3.50;;;;;;;;5119854;27;10113;-83
2023/09/15 12:01:58;;;;;;;;;1.00;1.00;;;;;;;;5115887;27;8975;-82
2023/09/15 12:04:24;;;;;;;;;5.00;2.25;;;;;;;;5124604;27;8772;-82
2023/09/15 12:06:49;;;;;;;;;2.33;2.00;;;;;;;;5131958;27;8884;-82
2023/09/15 12:09:15;;;;;;;;;2.00;2.00;;;;;;;;5129301;27;10064;-82
2023/09/15 12:11:41;;;;;;;;;5.00;4.00;;;;;;;;5134479;27;8803;-82
2023/09/15 12:14:07;;;;;;;;;2.00;1.00;;;;;;;;5133010;27;11442;-82
2023/09/15 12:16:36;;;;;;;;;4.00;3.00;;;;;;;;5128209;27;8820;-82
2023/09/15 12:19:01;;;;;;;;;2.00;2.00;;;;;;;;5123580;28;11427;-82
2023/09/15 12:21:28;;;;;;;;;2.33;2.00;;;;;;;;5130286;27;8792;-82
2023/09/15 12:24:07;;;;;;;;;1.00;1.00;;;;;;;;5142362;27;8789;-82
2023/09/15 12:26:32;;;;;;;;;2.25;1.50;;;;;;;;5131046;27;8818;-82
2023/09/15 12:29:13;;;;;;;;;1.00;1.00;;;;;;;;5124466;27;8810;-83
2023/09/15 12:31:44;;;;;;;;;3.25;2.75;;;;;;;;5119483;27;8784;-83
2023/09/15 12:34:27;;;;;;;;;2.00;2.00;;;;;;;;5124462;27;8779;-82
2023/09/15 12:36:55;;;;;;;;;3.75;3.75;;;;;;;;5124366;27;8774;-83
2023/09/15 12:39:22;;;;;;;;;2.00;2.00;;;;;;;;5103548;28;8772;-83
2023/09/15 12:42:06;;;;;;;;;4.00;4.00;;;;;;;;5128612;27;8793;-83
2023/09/15 12:44:57;;;;;;;;;3.25;2.00;;;;;;;;5128729;27;8812;-83
2023/09/15 12:47:31;;;;;;;;;3.00;3.00;;;;;;;;5141891;27;8788;-83
2023/09/15 12:49:56;;;;;;;;;4.00;3.00;;;;;;;;5133209;27;8785;-83
2023/09/15 12:52:37;;;;;;;;;4.00;2.67;;;;;;;;5117371;27;9424;-83
2023/09/15 12:55:03;;;;;;;;;2.50;2.00;;;;;;;;5144803;27;8771;-83
2023/09/15 12:57:30;;;;;;;;;0.25;0.25;;;;;;;;5105382;27;8800;-83
2023/09/15 12:59:56;;;;;;;;;6.50;3.00;;;;;;;;5118334;27;10204;-83
2023/09/15 13:02:36;;;;;;;;;3.00;2.33;;;;;;;;5119154;27;8803;-83
2023/09/15 13:05:04;;;;;;;;;3.50;3.00;;;;;;;;5129596;27;8799;-82
2023/09/15 13:07:37;;;;;;;;;3.00;2.00;;;;;;;;5127928;27;8902;-78
2023/09/15 13:10:40;;;;;;;;;2.50;2.50;;;;;;;;5123949;27;8892;-79
2023/09/15 13:12:57;;;;;;;;;4.00;2.75;;;;;;;;5118134;27;8808;-80
2023/09/15 13:15:23;;;;;;;;;1.33;1.33;;;;;;;;5123645;27;8807;-93
2023/09/15 13:17:49;;;;;;;;;2.33;2.00;;;;;;;;5121316;27;8797;-84
2023/09/15 13:20:15;;;;;;;;;0.50;0.50;;;;;;;;5131170;27;10816;-80
2023/09/15 13:22:40;;;;;;;;;1.33;1.33;;;;;;;;5122638;27;8872;-80
2023/09/15 13:25:07;;;;;;;;;1.33;1.00;;;;;;;;5125736;27;8899;-80
2023/09/15 13:27:35;;;;;;;;;2.75;1.50;;;;;;;;5129046;27;8767;-80
2023/09/15 13:30:02;;;;;;;;;2.25;1.75;;;;;;;;5117923;27;8820;-80
2023/09/15 13:32:28;;;;;;;;;2.00;2.00;;;;;;;;5122319;27;8804;-84
2023/09/15 13:34:55;;;;;;;;;1.25;1.25;;;;;;;;5123862;27;8829;-83
2023/09/15 13:37:22;;;;;;;;;0.75;0.75;;;;;;;;5128474;27;8803;-83
2023/09/15 13:39:48;;;;;;;;;0.75;0.75;;;;;;;;5130106;27;10082;-83
2023/09/15 13:42:17;;;;;;;;;3.00;2.00;;;;;;;;5131489;27;8809;-83
2023/09/15 13:44:42;;;;;;;;;2.25;2.00;;;;;;;;5126804;27;8807;-83
2023/09/15 13:47:08;;;;;;;;;2.00;2.00;;;;;;;;5113129;27;8845;-82
2023/09/15 13:49:33;;;;;;;;;5.67;2.33;;;;;;;;5116393;27;10301;-84
2023/09/15 13:51:58;;;;;;;;;2.33;2.00;;;;;;;;5133617;27;9029;-83
2023/09/15 13:54:24;;;;;;;;;3.00;2.00;;;;;;;;5120369;27;9014;-84
2023/09/15 13:56:49;;;;;;;;;0.33;0.33;;;;;;;;5133503;27;8899;-84
2023/09/15 13:59:14;;;;;;;;;2.67;1.33;;;;;;;;5141353;27;9947;-84
2023/09/15 14:01:39;;;;;;;;;2.67;2.67;;;;;;;;5125076;27;8803;-85
2023/09/15 14:04:06;;;;;;;;;4.00;1.33;;;;;;;;5121659;27;8821;-84
2023/09/15 14:06:31;;;;;;;;;2.25;1.50;;;;;;;;5120219;27;8791;-84
2023/09/15 14:08:56;;;;;;;;;2.33;1.67;;;;;;;;5122048;27;8839;-84
2023/09/15 14:11:22;;;;;;;;;2.00;2.00;;;;;;;;5118172;27;8803;-85
2023/09/15 14:13:47;;;;;;;;;2.33;2.33;;;;;;;;5113178;27;8825;-82
2023/09/15 14:16:12;;;;;;;;;1.33;1.33;;;;;;;;5123059;27;8831;-85
2023/09/15 14:18:37;;;;;;;;;2.33;2.33;;;;;;;;5122814;27;10205;-81
2023/09/15 14:21:03;;;;;;;;;3.33;2.33;;;;;;;;5118967;27;8807;-79
2023/09/15 14:23:28;;;;;;;;;2.33;2.33;;;;;;;;5115594;27;9339;-81
2023/09/15 14:25:53;;;;;;;;;2.33;2.33;;;;;;;;5115980;27;8857;-80
2023/09/15 14:28:19;;;;;;;;;1.33;1.33;;;;;;;;5120153;27;8875;-82
2023/09/15 14:30:49;;;;;;;;;3.50;2.25;;;;;;;;5113314;27;8748;-81
2023/09/15 14:33:15;;;;;;;;;1.25;1.25;;;;;;;;5108319;27;10038;-82
2023/09/15 14:35:40;;;;;;;;;2.00;2.00;;;;;;;;5114630;27;8931;-81
2023/09/15 14:38:05;;;;;;;;;1.33;1.33;;;;;;;;5116265;27;8830;-81
2023/09/15 14:40:30;;;;;;;;;1.33;1.33;;;;;;;;5116871;27;8851;-80
2023/09/15 14:42:55;;;;;;;;;1.67;1.67;;;;;;;;5122408;27;8825;-81
2023/09/15 14:45:24;;;;;;;;;0.67;0.67;;;;;;;;5117855;27;8811;-81